createdAt,value
2018-01-25T00:01:29.809Z,71.67
2018-01-25T00:03:55.740Z,71.08
2018-01-25T00:06:25.030Z,70.17
2018-01-25T00:08:50.982Z,70.12
2018-01-25T00:11:20.153Z,70.30
2018-01-25T00:13:46.117Z,70.41
2018-01-25T00:16:13.643Z,70.44
2018-01-25T00:18:39.596Z,70.10
2018-01-25T00:21:05.590Z,69.70
2018-01-25T00:23:31.577Z,68.85
2018-01-25T00:25:57.557Z,68.18
2018-01-25T00:28:25.024Z,67.48
2018-01-25T00:30:51.003Z,66.97
2018-01-25T00:33:20.175Z,66.24
2018-01-25T00:35:46.127Z,66.24
2018-01-25T00:38:14.987Z,66.78
2018-01-25T00:40:40.896Z,67.38
2018-01-25T00:43:10.665Z,67.52
2018-01-25T00:45:36.635Z,67.75
2018-01-25T00:48:03.814Z,67.85
2018-01-25T00:50:29.741Z,67.96
2018-01-25T00:52:58.944Z,67.92
2018-01-25T00:55:24.890Z,67.74
2018-01-25T00:57:50.828Z,67.25
2018-01-25T01:00:16.770Z,66.46
2018-01-25T01:02:42.697Z,65.92
2018-01-25T01:05:11.805Z,65.84
2018-01-25T01:07:37.759Z,65.33
2018-01-25T01:10:05.270Z,65.09
2018-01-25T01:12:31.221Z,64.65
2018-01-25T01:15:01.089Z,64.42
2018-01-25T01:17:27.033Z,64.40
2018-01-25T01:19:56.049Z,64.21
2018-01-25T01:22:22.000Z,64.22
2018-01-25T01:24:49.040Z,63.72
2018-01-25T01:27:15.019Z,63.63
2018-01-25T01:29:44.008Z,63.39
2018-01-25T01:32:10.017Z,63.38
2018-01-25T01:34:35.944Z,63.37
2018-01-25T01:37:01.939Z,63.53
2018-01-25T01:39:27.898Z,63.69
2018-01-25T01:41:55.274Z,63.75
2018-01-25T01:44:21.268Z,63.60
2018-01-25T01:46:50.574Z,63.60
2018-01-25T01:49:16.537Z,63.64
2018-01-25T01:51:44.793Z,63.63
2018-01-25T01:54:10.807Z,64.07
2018-01-25T01:56:40.088Z,64.26
2018-01-25T01:59:06.044Z,64.17
2018-01-25T02:01:34.263Z,64.47
2018-01-25T02:04:00.232Z,64.48
2018-01-25T02:06:29.441Z,64.40
2018-01-25T02:08:55.429Z,64.47
2018-01-25T02:11:21.394Z,64.46
2018-01-25T02:13:47.340Z,64.60
2018-01-25T02:16:13.302Z,64.94
2018-01-25T02:18:40.961Z,64.82
2018-01-25T02:21:06.925Z,65.09
2018-01-25T02:23:36.157Z,65.13
2018-01-25T02:26:02.177Z,65.38
2018-01-25T02:28:30.235Z,65.35
2018-01-25T02:30:56.219Z,65.43
2018-01-25T02:33:25.517Z,65.59
2018-01-25T02:35:51.465Z,65.53
2018-01-25T02:38:19.966Z,65.67
2018-01-25T02:40:45.905Z,65.81
2018-01-25T02:43:15.233Z,65.97
2018-01-25T02:45:41.220Z,66.12
2018-01-25T02:48:07.183Z,66.16
2018-01-25T02:50:33.134Z,65.87
2018-01-25T02:52:59.095Z,66.01
2018-01-25T02:55:26.450Z,66.22
2018-01-25T02:57:52.523Z,66.39
2018-01-25T03:00:20.681Z,66.40
2018-01-25T03:02:46.617Z,66.58
2018-01-25T03:05:16.303Z,66.96
2018-01-25T03:07:42.225Z,67.03
2018-01-25T03:10:10.088Z,66.98
2018-01-25T03:12:36.017Z,67.01
2018-01-25T03:15:05.044Z,67.15
2018-01-25T03:17:31.053Z,67.23
2018-01-25T03:20:00.481Z,67.11
2018-01-25T03:22:26.408Z,67.27
2018-01-25T03:24:52.413Z,67.38
2018-01-25T03:27:18.340Z,67.56
2018-01-25T03:29:44.281Z,67.96
2018-01-25T03:32:11.626Z,68.46
2018-01-25T03:34:37.570Z,69.17
2018-01-25T03:37:06.815Z,68.96
2018-01-25T03:39:32.792Z,69.34
2018-01-25T03:42:00.579Z,69.51
2018-01-25T03:44:26.736Z,70.15
2018-01-25T03:46:55.774Z,70.66
2018-01-25T03:49:21.732Z,70.94
2018-01-25T03:51:51.308Z,71.07
2018-01-25T03:54:17.242Z,71.01
2018-01-25T03:56:44.784Z,70.68
2018-01-25T03:59:10.717Z,70.05
2018-01-25T04:01:36.646Z,69.45
2018-01-25T04:04:02.656Z,68.76
2018-01-25T04:06:28.584Z,68.91
2018-01-25T04:08:56.724Z,69.33
2018-01-25T04:11:22.643Z,69.21
2018-01-25T04:13:52.020Z,69.20
2018-01-25T04:16:17.941Z,69.05
2018-01-25T04:18:47.620Z,68.92
2018-01-25T04:21:13.539Z,68.42
2018-01-25T04:23:40.820Z,68.35
2018-01-25T04:26:06.772Z,68.24
2018-01-25T04:28:35.856Z,68.20
2018-01-25T04:31:01.777Z,67.96
2018-01-25T04:33:30.971Z,68.00
2018-01-25T04:35:56.935Z,67.81
2018-01-25T04:38:22.854Z,67.97
2018-01-25T04:40:48.779Z,67.67
2018-01-25T04:43:14.773Z,67.63
2018-01-25T04:45:42.324Z,67.50
2018-01-25T04:48:08.235Z,67.56
2018-01-25T04:50:37.300Z,67.42
2018-01-25T04:53:03.288Z,67.26
2018-01-25T04:55:31.160Z,66.92
2018-01-25T04:57:57.418Z,66.94
2018-01-25T05:00:27.285Z,66.93
2018-01-25T05:02:53.265Z,66.84
2018-01-25T05:05:22.385Z,66.60
2018-01-25T05:07:48.344Z,66.45
2018-01-25T05:10:15.425Z,66.11
2018-01-25T05:12:41.400Z,65.81
2018-01-25T05:15:07.378Z,65.47
2018-01-25T05:17:33.341Z,65.42
2018-01-25T05:19:59.285Z,65.35
2018-01-25T05:22:27.010Z,64.77
2018-01-25T05:24:52.985Z,64.57
2018-01-25T05:27:21.729Z,64.74
2018-01-25T05:29:47.720Z,64.63
2018-01-25T05:32:16.837Z,64.82
2018-01-25T05:34:42.754Z,64.73
2018-01-25T05:37:12.325Z,65.29
2018-01-25T05:39:38.313Z,66.03
2018-01-25T05:42:06.248Z,66.17
2018-01-25T05:44:32.251Z,66.27
2018-01-25T05:47:01.218Z,66.67
2018-01-25T05:49:27.137Z,67.13
2018-01-25T05:51:53.097Z,67.41
2018-01-25T05:54:19.088Z,66.90
2018-01-25T05:56:45.037Z,67.36
2018-01-25T05:59:12.812Z,66.66
2018-01-25T06:01:38.783Z,66.61
2018-01-25T06:04:07.848Z,66.48
2018-01-25T06:06:33.828Z,66.70
2018-01-25T06:09:03.848Z,67.11
2018-01-25T06:11:29.806Z,67.29
2018-01-25T06:13:57.105Z,67.15
2018-01-25T06:16:23.081Z,67.13
2018-01-25T06:18:51.340Z,67.20
2018-01-25T06:21:17.313Z,67.28
2018-01-25T06:23:46.280Z,67.39
2018-01-25T06:26:12.225Z,67.55
2018-01-25T06:28:38.129Z,67.67
2018-01-25T06:31:04.093Z,67.84
2018-01-25T06:33:30.089Z,68.06
2018-01-25T06:35:57.731Z,67.89
2018-01-25T06:38:23.666Z,67.79
2018-01-25T06:40:52.462Z,67.90
2018-01-25T06:43:18.437Z,68.23
2018-01-25T06:45:47.088Z,67.74
2018-01-25T06:48:13.049Z,67.65
2018-01-25T06:50:42.504Z,67.79
2018-01-25T06:53:08.454Z,67.93
2018-01-25T06:55:37.531Z,67.94
2018-01-25T06:58:03.448Z,67.91
2018-01-25T07:00:31.159Z,68.00
2018-01-25T07:02:57.072Z,67.68
2018-01-25T07:05:23.030Z,67.92
2018-01-25T07:07:48.956Z,68.08
2018-01-25T07:10:14.937Z,67.74
2018-01-25T07:12:44.128Z,67.43
2018-01-25T07:15:10.103Z,67.68
2018-01-25T07:17:38.261Z,67.59
2018-01-25T07:20:04.281Z,67.77
2018-01-25T07:22:33.504Z,67.86
2018-01-25T07:24:59.443Z,67.87
2018-01-25T07:27:27.325Z,68.15
2018-01-25T07:29:53.313Z,68.19
2018-01-25T07:32:22.320Z,68.03
2018-01-25T07:34:48.280Z,68.30
2018-01-25T07:37:17.540Z,68.19
2018-01-25T07:39:43.520Z,68.27
2018-01-25T07:42:09.492Z,67.99
2018-01-25T07:44:35.449Z,68.03
2018-01-25T07:47:01.415Z,68.02
2018-01-25T07:49:28.573Z,67.96
2018-01-25T07:51:54.526Z,68.04
2018-01-25T07:54:23.812Z,67.98
2018-01-25T07:56:49.781Z,67.85
2018-01-25T07:59:18.943Z,67.83
2018-01-25T08:01:44.880Z,67.71
2018-01-25T08:04:12.753Z,67.56
2018-01-25T08:06:38.656Z,67.11
2018-01-25T08:09:08.207Z,66.86
2018-01-25T08:11:34.166Z,66.37
2018-01-25T08:14:03.033Z,66.47
2018-01-25T08:16:35.161Z,66.18
2018-01-25T08:19:01.069Z,66.02
2018-01-25T08:21:27.016Z,66.04
2018-01-25T08:23:52.931Z,66.10
2018-01-25T08:26:18.919Z,66.36
2018-01-25T08:28:44.882Z,66.34
2018-01-25T08:31:10.797Z,66.66
2018-01-25T08:33:36.752Z,66.62
2018-01-25T08:36:03.230Z,66.35
2018-01-25T08:38:29.189Z,65.65
2018-01-25T08:40:58.453Z,65.36
2018-01-25T08:43:24.406Z,65.56
2018-01-25T08:45:52.738Z,65.79
2018-01-25T08:48:18.668Z,65.80
2018-01-25T08:50:47.867Z,65.59
2018-01-25T08:53:13.870Z,65.28
2018-01-25T08:55:39.873Z,65.05
2018-01-25T08:58:05.791Z,64.83
2018-01-25T09:00:31.753Z,64.88
2018-01-25T09:02:59.364Z,64.01
2018-01-25T09:05:25.354Z,63.21
2018-01-25T09:07:54.570Z,62.20
2018-01-25T09:10:20.534Z,60.85
2018-01-25T09:12:49.616Z,60.02
2018-01-25T09:15:15.583Z,59.39
2018-01-25T09:17:44.713Z,58.99
2018-01-25T09:20:10.661Z,59.50
2018-01-25T09:22:39.653Z,59.65
2018-01-25T09:25:05.645Z,59.00
2018-01-25T09:27:32.710Z,58.63
2018-01-25T09:29:58.662Z,59.17
2018-01-25T09:32:24.670Z,58.60
2018-01-25T09:34:50.661Z,58.09
2018-01-25T09:37:16.600Z,58.03
2018-01-25T09:39:45.338Z,58.48
2018-01-25T09:42:11.289Z,58.28
2018-01-25T09:44:38.973Z,58.41
2018-01-25T09:47:04.940Z,58.52
2018-01-25T09:49:34.473Z,58.11
2018-01-25T09:52:00.417Z,55.95
2018-01-25T09:54:29.847Z,55.65
2018-01-25T09:56:55.768Z,54.40
2018-01-25T09:59:25.104Z,52.68
2018-01-25T10:01:51.076Z,52.43
2018-01-25T10:04:18.350Z,51.96
2018-01-25T10:06:44.305Z,51.46
2018-01-25T10:09:10.270Z,50.53
2018-01-25T10:11:36.241Z,49.26
2018-01-25T10:14:02.230Z,49.03
2018-01-25T10:16:31.231Z,51.62
2018-01-25T10:18:57.188Z,52.28
2018-01-25T10:21:26.356Z,52.90
2018-01-25T10:23:52.333Z,52.73
2018-01-25T10:26:19.601Z,53.01
2018-01-25T10:28:45.578Z,52.46
2018-01-25T10:31:14.805Z,50.62
2018-01-25T10:33:40.783Z,49.59
2018-01-25T10:36:09.564Z,47.80
2018-01-25T10:38:35.544Z,46.25
2018-01-25T10:41:03.326Z,44.88
2018-01-25T10:43:29.389Z,45.06
2018-01-25T10:45:55.362Z,48.12
2018-01-25T10:48:21.317Z,50.78
2018-01-25T10:50:47.245Z,51.88
2018-01-25T10:53:16.039Z,52.75
2018-01-25T10:55:41.986Z,53.17
2018-01-25T10:58:09.882Z,53.23
2018-01-25T11:00:41.933Z,52.90
2018-01-25T11:03:07.893Z,53.23
2018-01-25T11:05:33.862Z,53.18
2018-01-25T11:07:59.824Z,53.45
2018-01-25T11:10:25.790Z,54.03
2018-01-25T11:12:54.853Z,55.36
2018-01-25T11:15:20.846Z,55.17
2018-01-25T11:17:48.694Z,56.09
2018-01-25T11:20:14.708Z,56.14
2018-01-25T11:22:40.693Z,55.75
2018-01-25T11:25:06.605Z,55.96
2018-01-25T11:27:32.577Z,56.28
2018-01-25T11:30:01.665Z,56.66
2018-01-25T11:32:27.666Z,56.49
2018-01-25T11:34:56.742Z,56.08
2018-01-25T11:37:22.709Z,55.96
2018-01-25T11:39:49.860Z,54.76
2018-01-25T11:42:15.841Z,53.57
2018-01-25T11:44:44.923Z,52.03
2018-01-25T11:47:10.941Z,51.75
2018-01-25T11:49:40.011Z,51.51
2018-01-25T11:52:05.954Z,51.24
2018-01-25T11:54:35.014Z,50.70
2018-01-25T11:57:00.945Z,51.21
2018-01-25T11:59:26.936Z,51.33
2018-01-25T12:01:52.886Z,52.18
2018-01-25T12:04:18.820Z,52.60
2018-01-25T12:06:45.973Z,52.32
2018-01-25T12:09:11.993Z,52.76
2018-01-25T12:11:41.088Z,53.18
2018-01-25T12:14:07.106Z,54.46
2018-01-25T12:16:36.059Z,54.55
2018-01-25T12:19:02.046Z,55.11
2018-01-25T12:21:31.284Z,55.69
2018-01-25T12:23:57.269Z,54.87
2018-01-25T12:26:25.185Z,53.43
2018-01-25T12:28:51.169Z,53.60
2018-01-25T12:31:19.302Z,53.47
2018-01-25T12:33:45.249Z,54.46
2018-01-25T12:36:11.211Z,53.54
2018-01-25T12:38:37.142Z,54.20
2018-01-25T12:41:03.124Z,54.36
2018-01-25T12:43:31.850Z,54.62
2018-01-25T12:45:57.848Z,55.74
2018-01-25T12:48:26.705Z,55.98
2018-01-25T12:50:52.689Z,55.67
2018-01-25T12:53:21.882Z,56.02
2018-01-25T12:55:47.872Z,56.43
2018-01-25T12:58:15.222Z,55.85
2018-01-25T13:00:41.210Z,55.71
2018-01-25T13:03:10.495Z,56.09
2018-01-25T13:05:36.434Z,56.70
2018-01-25T13:08:04.508Z,56.56
2018-01-25T13:10:30.483Z,56.96
2018-01-25T13:12:56.464Z,56.31
2018-01-25T13:15:22.394Z,56.08
2018-01-25T13:17:48.314Z,56.52
2018-01-25T13:20:16.504Z,55.36
2018-01-25T13:22:42.446Z,55.49
2018-01-25T13:25:10.954Z,56.52
2018-01-25T13:27:36.917Z,56.36
2018-01-25T13:30:06.357Z,56.37
2018-01-25T13:32:32.293Z,56.27
2018-01-25T13:35:02.042Z,56.15
2018-01-25T13:37:28.026Z,56.24
2018-01-25T13:39:55.123Z,56.97
2018-01-25T13:42:21.063Z,56.68
2018-01-25T13:44:50.634Z,57.08
2018-01-25T13:47:16.609Z,57.12
2018-01-25T13:49:42.568Z,57.45
2018-01-25T13:52:08.559Z,57.12
2018-01-25T13:54:34.521Z,57.05
2018-01-25T13:57:01.534Z,56.66
2018-01-25T13:59:27.509Z,56.70
2018-01-25T14:01:56.509Z,57.49
2018-01-25T14:04:22.450Z,57.01
2018-01-25T14:06:51.472Z,56.77
2018-01-25T14:09:17.427Z,57.25
2018-01-25T14:11:46.554Z,57.15
2018-01-25T14:14:12.508Z,56.53
2018-01-25T14:16:40.428Z,56.24
2018-01-25T14:19:06.405Z,56.34
2018-01-25T14:21:35.483Z,56.25
2018-01-25T14:24:01.450Z,56.64
2018-01-25T14:26:27.397Z,56.89
2018-01-25T14:28:53.370Z,56.83
2018-01-25T14:31:19.320Z,56.50
2018-01-25T14:33:48.441Z,56.44
2018-01-25T14:36:14.445Z,56.02
2018-01-25T14:38:41.830Z,55.39
2018-01-25T14:41:07.749Z,55.24
2018-01-25T14:43:36.861Z,55.52
2018-01-25T14:46:02.857Z,55.65
2018-01-25T14:48:32.125Z,55.88
2018-01-25T14:50:58.102Z,55.06
2018-01-25T14:53:27.096Z,55.32
2018-01-25T14:55:53.069Z,55.70
2018-01-25T14:58:20.550Z,56.33
2018-01-25T15:00:46.518Z,56.78
2018-01-25T15:03:12.505Z,57.01
2018-01-25T15:05:38.480Z,57.33
2018-01-25T15:08:04.494Z,57.69
2018-01-25T15:10:32.355Z,57.44
2018-01-25T15:12:58.331Z,58.09
2018-01-25T15:15:26.970Z,58.37
2018-01-25T15:17:52.961Z,58.60
2018-01-25T15:20:21.536Z,57.99
2018-01-25T15:22:47.470Z,58.45
2018-01-25T15:25:23.447Z,58.55
2018-01-25T15:27:49.361Z,59.01
2018-01-25T15:30:15.338Z,59.02
2018-01-25T15:32:41.324Z,59.68
2018-01-25T15:35:07.277Z,60.27
2018-01-25T15:37:33.278Z,61.46
2018-01-25T15:39:59.184Z,62.03
2018-01-25T15:42:25.129Z,63.33
2018-01-25T15:44:51.103Z,63.54
2018-01-25T15:47:17.951Z,63.14
2018-01-25T15:49:43.881Z,63.16
2018-01-25T15:52:13.042Z,63.71
2018-01-25T15:54:39.001Z,63.85
2018-01-25T15:57:06.952Z,64.14
2018-01-25T15:59:32.875Z,64.02
2018-01-25T16:02:02.490Z,64.24
2018-01-25T16:04:28.419Z,64.48
2018-01-25T16:06:56.378Z,64.80
2018-01-25T16:09:22.348Z,65.60
2018-01-25T16:11:51.713Z,65.83
2018-01-25T16:14:17.707Z,65.82
2018-01-25T16:16:43.680Z,65.97
2018-01-25T16:19:09.643Z,66.67
2018-01-25T16:21:35.624Z,66.21
2018-01-25T16:24:03.525Z,66.06
2018-01-25T16:26:29.498Z,66.20
2018-01-25T16:28:57.276Z,65.85
2018-01-25T16:31:23.226Z,66.30
2018-01-25T16:33:52.934Z,65.95
2018-01-25T16:36:18.962Z,65.97
2018-01-25T16:38:46.622Z,65.96
2018-01-25T16:41:12.640Z,65.61
2018-01-25T16:43:41.449Z,65.45
2018-01-25T16:46:07.378Z,65.96
2018-01-25T16:48:35.986Z,65.75
2018-01-25T16:51:01.941Z,66.26
2018-01-25T16:53:27.971Z,66.28
2018-01-25T16:55:53.932Z,67.10
2018-01-25T16:58:19.886Z,66.69
2018-01-25T17:00:49.890Z,66.99
2018-01-25T17:03:15.838Z,66.69
2018-01-25T17:05:43.132Z,66.58
2018-01-25T17:08:09.118Z,66.77
2018-01-25T17:10:39.002Z,66.70
2018-01-25T17:13:04.981Z,66.40
2018-01-25T17:15:32.829Z,66.63
2018-01-25T17:17:58.793Z,66.77
2018-01-25T17:20:27.833Z,66.49
2018-01-25T17:22:53.828Z,66.54
2018-01-25T17:25:22.618Z,66.67
2018-01-25T17:27:48.541Z,66.88
2018-01-25T17:30:14.474Z,66.69
2018-01-25T17:32:40.451Z,66.93
2018-01-25T17:35:06.408Z,66.58
2018-01-25T17:37:33.640Z,66.62
2018-01-25T17:39:59.603Z,66.60
2018-01-25T17:42:28.759Z,66.44
2018-01-25T17:44:54.750Z,66.39
2018-01-25T17:47:24.458Z,66.46
2018-01-25T17:49:50.610Z,66.06
2018-01-25T17:52:18.374Z,65.97
2018-01-25T17:54:44.326Z,66.05
2018-01-25T17:57:13.262Z,65.76
2018-01-25T17:59:39.176Z,65.67
2018-01-25T18:02:07.064Z,65.81
2018-01-25T18:04:33.024Z,65.64
2018-01-25T18:06:58.989Z,65.89
2018-01-25T18:09:24.933Z,66.12
2018-01-25T18:11:50.943Z,66.14
2018-01-25T18:14:18.861Z,66.30
2018-01-25T18:16:44.817Z,65.59
2018-01-25T18:19:13.852Z,65.29
2018-01-25T18:21:39.833Z,65.11
2018-01-25T18:24:08.874Z,64.86
2018-01-25T18:26:34.825Z,65.30
2018-01-25T18:29:02.504Z,64.83
2018-01-25T18:31:28.472Z,65.19
2018-01-25T18:33:57.296Z,65.70
2018-01-25T18:36:23.277Z,65.34
2018-01-25T18:38:53.075Z,65.19
2018-01-25T18:41:19.100Z,65.46
2018-01-25T18:43:45.096Z,65.64
2018-01-25T18:46:11.067Z,66.26
2018-01-25T18:48:37.064Z,66.33
2018-01-25T18:51:04.074Z,66.27
2018-01-25T18:53:30.033Z,66.73
2018-01-25T18:55:59.284Z,66.80
2018-01-25T18:58:25.261Z,66.87
2018-01-25T19:00:54.505Z,67.08
2018-01-25T19:03:20.445Z,67.33
2018-01-25T19:05:49.579Z,67.34
2018-01-25T19:08:15.566Z,67.41
2018-01-25T19:10:44.609Z,67.39
2018-01-25T19:13:10.588Z,67.66
2018-01-25T19:15:38.389Z,67.76
2018-01-25T19:18:04.396Z,67.21
2018-01-25T19:20:30.363Z,67.00
2018-01-25T19:22:56.345Z,66.95
2018-01-25T19:25:22.322Z,67.14
2018-01-25T19:27:50.010Z,67.69
2018-01-25T19:30:16.019Z,67.88
2018-01-25T19:32:43.777Z,67.16
2018-01-25T19:35:09.752Z,67.62
2018-01-25T19:37:39.206Z,67.71
2018-01-25T19:40:05.151Z,68.07
2018-01-25T19:42:35.050Z,67.79
2018-01-25T19:45:01.056Z,68.04
2018-01-25T19:47:29.642Z,68.08
2018-01-25T19:49:55.621Z,68.63
2018-01-25T19:52:24.745Z,68.82
2018-01-25T19:54:50.733Z,69.10
2018-01-25T19:57:16.685Z,69.27
2018-01-25T19:59:42.659Z,69.50
2018-01-25T20:02:08.666Z,69.73
2018-01-25T20:04:34.652Z,69.72
2018-01-25T20:07:00.570Z,69.92
2018-01-25T20:09:30.230Z,69.78
2018-01-25T20:11:56.166Z,69.90
2018-01-25T20:14:25.561Z,70.04
2018-01-25T20:16:51.547Z,70.14
2018-01-25T20:19:18.860Z,70.28
2018-01-25T20:21:44.816Z,70.71
2018-01-25T20:24:14.070Z,70.18
2018-01-25T20:26:40.012Z,70.21
2018-01-25T20:29:08.949Z,70.28
2018-01-25T20:31:34.913Z,70.19
2018-01-25T20:34:00.885Z,70.22
2018-01-25T20:36:26.881Z,70.24
2018-01-25T20:38:53.126Z,70.09
2018-01-25T20:41:20.113Z,70.21
2018-01-25T20:43:46.062Z,70.66
2018-01-25T20:46:15.327Z,70.97
2018-01-25T20:48:41.249Z,71.15
2018-01-25T20:51:10.933Z,71.21
2018-01-25T20:53:36.918Z,71.34
2018-01-25T20:56:04.239Z,71.12
2018-01-25T20:58:31.116Z,71.41
2018-01-25T21:00:58.923Z,71.41
2018-01-25T21:03:24.893Z,71.26
2018-01-25T21:05:53.506Z,71.31
2018-01-25T21:08:19.533Z,71.38
2018-01-25T21:10:45.493Z,71.12
2018-01-25T21:13:11.449Z,71.14
2018-01-25T21:15:37.449Z,71.38
2018-01-25T21:18:05.333Z,71.35
2018-01-25T21:20:31.315Z,71.47
2018-01-25T21:23:01.177Z,71.38
2018-01-25T21:25:27.577Z,71.10
2018-01-25T21:27:54.818Z,71.23
2018-01-25T21:30:20.782Z,71.23
2018-01-25T21:32:49.958Z,71.50
2018-01-25T21:35:15.985Z,71.30
2018-01-25T21:37:43.939Z,71.42
2018-01-25T21:40:09.968Z,71.52
2018-01-25T21:42:39.137Z,71.34
2018-01-25T21:45:05.077Z,71.66
2018-01-25T21:47:31.106Z,71.55
2018-01-25T21:49:57.076Z,71.36
2018-01-25T21:52:23.053Z,71.31
2018-01-25T21:54:51.058Z,71.36
2018-01-25T21:57:16.960Z,71.82
2018-01-25T21:59:46.206Z,71.09
2018-01-25T22:02:12.200Z,71.06
2018-01-25T22:04:40.016Z,71.18
2018-01-25T22:07:05.961Z,71.05
2018-01-25T22:09:34.973Z,70.89
2018-01-25T22:12:00.967Z,70.90
2018-01-25T22:14:30.252Z,70.59
2018-01-25T22:16:56.273Z,70.54
2018-01-25T22:19:23.945Z,70.31
2018-01-25T22:21:49.885Z,70.26
2018-01-25T22:24:15.817Z,70.13
2018-01-25T22:26:41.783Z,70.14
2018-01-25T22:29:07.760Z,70.17
2018-01-25T22:31:37.125Z,70.53
2018-01-25T22:34:03.094Z,70.29
2018-01-25T22:36:32.437Z,70.28
2018-01-25T22:38:58.428Z,70.65
2018-01-25T22:41:25.887Z,70.68
2018-01-25T22:43:51.857Z,70.18
2018-01-25T22:46:20.888Z,70.23
2018-01-25T22:48:46.881Z,70.51
2018-01-25T22:51:15.653Z,70.85
2018-01-25T22:53:41.607Z,71.53
2018-01-25T22:56:10.385Z,71.59
2018-01-25T22:58:36.336Z,71.84
2018-01-25T23:01:02.253Z,71.91
2018-01-25T23:03:28.212Z,72.01
2018-01-25T23:05:54.189Z,71.90
2018-01-25T23:08:21.688Z,71.98
2018-01-25T23:10:47.587Z,72.00
2018-01-25T23:13:17.042Z,71.81
2018-01-25T23:15:43.006Z,71.73
2018-01-25T23:18:12.162Z,71.53
2018-01-25T23:20:38.136Z,71.45
2018-01-25T23:23:05.199Z,70.99
2018-01-25T23:25:31.154Z,70.69
2018-01-25T23:28:00.357Z,70.95
2018-01-25T23:30:26.373Z,70.73
2018-01-25T23:32:56.214Z,70.61
2018-01-25T23:35:22.149Z,70.74
2018-01-25T23:37:48.094Z,70.83
2018-01-25T23:40:14.051Z,70.84
2018-01-25T23:42:40.050Z,71.14
2018-01-25T23:45:07.009Z,71.17
2018-01-25T23:47:33.178Z,71.36
2018-01-25T23:50:01.018Z,71.63
2018-01-25T23:52:26.978Z,71.63
2018-01-25T23:54:55.716Z,71.51
2018-01-25T23:57:21.748Z,71.73
2018-01-25T23:59:51.468Z,71.83
